Forside
METAR-TAF:

METAR-TAF

Lufthavne :

La Chaux-de-Fonds, Schweiz

Breddekreds: 47-05-03N, længdekreds: 006-47-37E, højde: 1027 m

Aktuelle vejr

Denne rapport blev lavet for 22 minutter siden, kl. 14:50 UTC
Vind 9 kt fra vest, varierende mellem sydvest og vestnordvest
Temperatur 22°C
Fugtighed 33%
Tryk 1023 hPa
Sigt 10 km eller mere
ingen skyer under 1500m og ingen cumulonimbus

METAR: LSGC 141450Z 26009KT 220V290 CAVOK 22/05 Q1023

Tid: 17:12 (15:12 UTC)

Vejrudsigter

Denne rapport blev lavet for 47 minutter siden, kl. 14:25 UTC
Foreløbig gælder fra 14 på 15 UTC til 14 på 24 UTC
Vind 10 kt fra vest
Sigt 10 km eller mere
ingen skyer under 1500m og ingen cumulonimbus

TAF: LSGC 141425Z 1415/1424 26010KT CAVOK

Vejrobservationer og prognoser fra mere end 4000 lufthavne (METAR og TAF).

De gule og røde prikker repræsenterer de meteorologiske stationer.

Flyt musen over at se navnet på stationen.

Så klik over at se vejr observationer og prognoser.

At skifte det kort: Klik på de grønne knapper med et sort kors for at zoome ind; på den grønne knap med en bindestreg for at zoome ud; eller på de grønne pile for tilstødende kort.


METAR-TAF: